Lloydminster Airport
CYLL : now visible

Airfield :











YOU CAN JOIN US ON...

 
LOGIN :

Register | Disclaimer

   EN    FR    IT 

 









Legend :    VFR   Marginal VFR   IFR   Intensive IFR   Very Intensive IFR
Visi :
Ceiling :
>= 8 km
>= 3000ft
5 to 8 km
1000 to 3000 ft
1500m to 5 km
500 to 1000 ft
800 to 1500m
200 to 500 ft
< 800m
< 200 ft
Symbols :   Thunderstorms  Fog  Heavy snow  Heavy precipitations  Wind > 20 kt






- Airport Elevation : 2193 ft
- IATA code : YLL


CYLL - Lloydminster

CURRENT METAR :
  • 230100Z 34016G22KT 15SM SCT060 SCT250 00/M15 A3003 RMK SC3CI1 CI TR SLP205

EXPIRED METARs :
  • 230000Z 32011G19KT 15SM SCT055 SCT250 00/M15 A3002 RMK SC3CI1 CI TR SLP202
  • 222300Z 36014G21KT 310V020 15SM FEW060 SCT250 01/M14 A3001 RMK SC1CI2 SLP199

TAF TAF CYLL
Valid from the 23 at 00:00 until the 23 at 12:00 UTC


222338Z 2300/2312 36015KT P6SM FEW060 SCT250
FM230400 36006KT P6SM SKC
BECMG 2304/2306 VRB03KT RMK NXT FCST BY 230600Z
CZEG FIR / North America



MET'MAP, your aeronautical weather chart ! - Copyright ORBIFLY December 2007 - Disclaimer

ORBIFLY MET'MAP TEAM :

Programming & Development : Alexandra Zaïnal
Concept & original design : Baudouin d'Aumeries
Assistance for programming : Marc-Olivier Méhu
Technical & hardware support : Manuel Goepfert

Contact : metmap@orbifly.com




SOURCES & CREDITS :

   NOAA       Earth
Advisory